Aktualne dane pomiarowe

Uwaga, wersja testowa! Automatyczne pobieranie danych za pomocą narzędzi lub skryptów to umożliwiających jest zabronione.

Dane meteo z obszaru Polski uzyskane na podstawie depesz SYNOP pobieranych co godzinę z NWS. Najedź myszką na symbol przedstawiony w tabeli, aby uzyskać informacje co do jego znaczenia. Prosimy pamiętać, że to testowa wersja strony, która jeszcze nie jest ukończona. Stworzono również jest krótki FAQ dotyczący korzystania z tej podstrony Anomalie temperatury w chwili obecnej odniesione są do okresu referencyjnego 1951-2016. Okres ten będzie później zmieniony na 1981-2010. Kliknij ikonę aby pobrać plik CSV. Kliknij ikonę aby wygenerować mapę synoptyczną dla danego terminu.

Wybierz Datę:    

        

Łódź (12465)

Dane terminowe dla wybranej stacji. Kliknij datę, aby otrzymać dane z tego terminu dla wszystkich stacji.

TemperaturaZachmurzenieWiatrCiśnienieOpadyPogoda
 Data t td wb tx tn tg rh  Nt Nl Cl Cm Ch ws wd g1 g2 wx mslp ppp ch 24h 12h t ww ww w1 w2  
2019-07-12 23:00:00 16.5 11.6 13.3--- 7320.0wx-wx3wx--31010.1 988.7 0.0---------
2019-07-12 22:00:00 17.8 11.4 13.8--- 6620.0wx-wx2wx---1010.0 988.7 0.4---------
2019-07-12 21:00:00 18.6 11.4 14.1--- 6320.0wxwxwxwx2wx--21010.0 988.8 1.3---------
2019-07-12 20:00:00 19.0 11.8 14.5--- 6320.0wxwxwxwx2wx--21009.9 988.7 1.4---------
2019-07-12 19:00:00 20.0 11.0 14.5--- 5620.0wxwxwxwx6wx--61009.4 988.3 1.0---------
2019-07-12 18:00:00 22.4 7.5 14.0 26.3 18.0- 3820.0wxwxwxwx1wx--11008.4 987.5 0.0--12wx-w1--
2019-07-12 17:00:00 24.9 5.2 14.2--- 2820.0wxwxwxwxwx1wx--11008.0 987.3 -0.3---------
2019-07-12 16:00:00 24.9 5.2 14.2--- 2820.0wxwxwxwxwx2wx--21008.0 987.3 -0.8---wx---
2019-07-12 15:00:00 24.9 4.7 14.0--- 2720.0wxwxwxwxwx3wx--31008.2 987.5 -0.8---------
2019-07-12 14:00:00 25.2 4.4 14.0--- 2620.0wxwxwxwxwx2wx--21008.3 987.6 -1.2---------
2019-07-12 13:00:00 24.9 5.2 14.2--- 2820.0wxwxwxwxwx3wx--31008.8 988.1 -0.8---------
2019-07-12 12:00:00 24.4 5.8 14.2--- 3020.0wxwxwxwxwx2wx-921009.1 988.3 -0.9- 0.06------
2019-07-12 11:00:00 23.7 5.2 13.7--- 3020.0wxwxwxwxwx3wx-931009.6 988.8 -0.5---------
2019-07-12 10:00:00 23.2 5.2 13.4--- 3120.0wxwxwxwxwx3wx--31009.8 988.9 -0.8---------
2019-07-12 09:00:00 23.9 6.3 14.2--- 3220.0wxwxwxwxwx3wx-731010.0 989.2 -0.5---------
2019-07-12 08:00:00 22.3 7.4 13.9--- 3820.0wxwxwxwxwx3wx--31010.2 989.3 -0.5---------
2019-07-12 07:00:00 20.8 8.8 13.9--- 4620.0wx-wxwx2wx--21010.8 989.7 -0.3---------
2019-07-12 06:00:00 18.0 9.1 12.7 20.0 8.7 6 5620.0wx-wx2wx--21011.0 989.7 -0.3- 0.012----- 6.9
2019-07-12 05:00:00 14.3 9.7 11.4--- 7420.0wx-1wx---1011.3 989.8 -0.4---------
2019-07-12 04:00:00 11.0 9.4 9.9--- 9020.0wx-wxwx1wx--11011.8 990.0 -0.3---------
2019-07-12 03:00:00 8.8 7.6 8.0--- 9220.0wx-wxwx1wx--11012.0 990.0 -0.4---------
2019-07-12 02:00:00 10.3 9.1 9.4--- 9220.0wx-wx1wx--11012.1 990.2 -0.5---------
2019-07-12 01:00:00 11.0 9.4 9.9--- 9020.0wx-wx1wx--11012.1 990.3 -0.5---------
2019-07-12 00:00:00 10.6 9.0 9.5--- 9020.0wx-wx1wx--11012.2 990.4 -0.2- 0.06------
2019-07-11 23:00:00 11.9 10.0 10.6--- 8820.0wx-wx1wx--11012.4 990.7 0.1---------
2019-07-11 22:00:00 12.1 9.8 10.6--- 8620.0wx-wx1wx--11012.5 990.8 0.5---------
2019-07-11 21:00:00 11.9 10.0 10.6--- 8820.0wx-wx0---01012.3 990.6 0.5---------
2019-07-11 20:00:00 12.3 8.8 10.1--- 7920.0wx-wxwx0---01012.3 990.6 0.4---------
2019-07-11 19:00:00 15.7 8.2 11.3--- 6120.0wx-wxwx0---01011.7 990.3 0.0---------
2019-07-11 18:00:00 20.0 6.0 12.3 21.3 12.8- 4020.0wx-wxwx1wx-1211011.2 990.1 -0.5- 0.012------
2019-07-11 17:00:00 21.1 5.9 12.8--- 3720.0wxwxwxwxwx3wx-1231011.2 990.2 -0.6---------
2019-07-11 16:00:00 20.0 6.7 12.6--- 4220.0wxwxwx3wx--31011.4 990.3 -0.6---------
2019-07-11 15:00:00 20.0 6.7 12.6--- 4220.0wxwxwx4wx--41011.7 990.6 -0.3---------
2019-07-11 14:00:00 19.3 7.1 12.4--- 4520.0wxwxwx3wx--31012.0 990.8 -0.2---------
2019-07-11 13:00:00 18.8 6.3 11.9--- 4420.0wxwxwx4wx--41012.1 990.9 -0.4---------
2019-07-11 12:00:00 18.6 5.4 11.4--- 4220.0wxwxwx4wx--41012.1 990.9 -0.5- 0.06------
2019-07-11 11:00:00 17.9 4.8 10.9--- 4220.0wxwxwx3wx--31012.3 991.0 -0.2---------
2019-07-11 10:00:00 16.9 4.9 10.4--- 4520.0wxwxwx3wx--31012.7 991.3 0.3---------
2019-07-11 09:00:00 16.4 5.6 10.5--- 4920.0wxwxwxwx5wx--51012.8 991.4 0.5---------
2019-07-11 08:00:00 14.8 8.7 11.1--- 6720.0wxwxwxwx4wx--41012.7 991.2 0.6---------
2019-07-11 07:00:00 13.9 9.5 11.1--- 7520.0wxwxwx4wx---1012.6 991.0 0.7---------
2019-07-11 06:00:00 12.8 10.3 11.1 16.5 10.4 9 8520.0wxwxwxwx3wx-1431012.6 990.9 0.7 4.3 4.012wx-w1w2- 2.6
2019-07-11 05:00:00 12.1 10.5 11.0--- 9020.0wxwxwx3wx-1431012.3 990.6 0.3---------
2019-07-11 04:00:00 11.7 10.9 11.1--- 9520.0wxwxwx3wx--31012.1 990.3 -0.4---wx-w1--
2019-07-11 03:00:00 11.0 10.5 10.6--- 9720.0wxwxwx1wx--11012.0 990.2 -1.2---wx-w1--
2019-07-11 02:00:00 10.6 10.0 10.1--- 9613.0wxwxwxwx1wx--11012.1 990.3 -0.7---wx---
2019-07-11 01:00:00 11.7 10.8 11.0--- 9420.0wxwxwx2wx--21012.5 990.7 -0.7---wx-w1w2--
2019-07-11 00:00:00 11.8 10.7 11.0--- 9320.0wxwxwx3wx--31013.2 991.4 0.1- 3.06wx-w1w2--
1.6 ms

 

Print Friendly, PDF & Email